Meteo Giornale » Osservazioni meteo Svizzera » Locarno

ore: 02:50 - Osservazioni Meteo Locarno
Lat. 46° 10' N Lon. 8° 53' E Alt. 600 metri s.l.m.

foschia Europe/Zurich

12 °C

Foschia

Temp. 24 Ore

9 °C

22 °C

Nord

0 Km/h

Dew point 12 °C

Umidità 100 %

Visibilità  10 Km

Il sole sorge alle ore 07:24

Il sole tramonta alle ore 19:02

Data e Ora Cielo e Fenomeni T °C DP °C Um. % Pres. hPa Vis. km Vento km/h
Oggi h: 02:50 foschia Foschia 12 12 100 1018 10 N 0
Oggi h: 02:20 poco_nuvoloso Poco Nuvoloso 12 11 93 1018 10 N 3.7
Oggi h: 01:50 sereno Sereno 12 12 100 1018 10 N 0
Oggi h: 01:20 poco_nuvoloso Poco Nuvoloso 12 11 93 1018 10 N 5.5
Oggi h: 00:50 molto_nuvoloso Molto Nuvoloso 13 12 93 1018 10 N 3.7
Oggi h: 00:20 molto_nuvoloso Molto Nuvoloso 13 12 93 1018 10 N 3.7
Ieri h: 23:50 poco_nuvoloso Poco Nuvoloso 13 13 100 1018 10 N 0
Ieri h: 23:20 sereno Sereno 13 13 100 1018 10 N 1.8
Ieri h: 22:50 sereno Sereno 13 12 93 1018 10 N 0
Ieri h: 22:20 sereno Sereno 14 13 93 1018 10 N 0
Ieri h: 21:50 sereno Sereno 14 13 93 1018 10 N 3.7
Ieri h: 21:20 sereno Sereno 16 13 82 1018 10 N 0
Ieri h: 20:50 poco_nuvoloso Poco Nuvoloso 16 14 87 1018 10 N 5.5
Ieri h: 20:20 poco_nuvoloso Poco Nuvoloso 17 14 82 1018 10 N 5.5
Ieri h: 19:50 sereno Sereno 16 13 82 1017 10 N 1.8
Ieri h: 19:20 sereno Sereno 17 14 82 1017 5 N 5.5
Ieri h: 18:50 sereno Sereno 20 14 68 1017 10 N 5.5
Ieri h: 18:20 sereno Sereno 21 15 68 1017 10 N 3.7
Ieri h: 17:50 sereno Sereno 22 14 60 1017 10 N 3.7
Ieri h: 17:20 sereno Sereno 21 14 64 1017 10 O/SO 7.4
Ieri h: 16:50 sereno Sereno 22 15 64 1017 10 O/SO 7.4
Ieri h: 16:20 sereno Sereno 21 14 64 1017 10 O 9.3
Ieri h: 15:50 sereno Sereno 21 14 64 1018 10 N 5.5
Ieri h: 15:20 sereno Sereno 21 14 64 1018 10 O 9.3
Ieri h: 14:50 sereno Sereno 21 13 60 1018 10 O/SO 7.4
Ieri h: 14:20 sereno Sereno 20 14 68 1019 10 O 9.3
Ieri h: 13:50 sereno Sereno 20 13 64 1019 10 O 11.1
Ieri h: 13:20 sereno Sereno 19 13 68 1020 10 O 11.1
Ieri h: 12:50 poco_nuvoloso Poco Nuvoloso 18 14 77 1020 10 O 9.3
Ieri h: 12:20 sereno Sereno 18 13 72 1020 10 O 7.4
Ieri h: 11:50 sereno Sereno 17 13 77 1020 10 O 7.4
Ieri h: 11:20 sereno Sereno 17 13 77 1020 10 N 1.8
Ieri h: 10:50 sereno Sereno 17 13 77 1021 10 N 1.8
Ieri h: 10:20 sereno Sereno 16 12 77 1021 10 N 1.8
Ieri h: 09:50 sereno Sereno 14 12 87 1021 10 E 9.3
Ieri h: 09:20 poco_nuvoloso Poco Nuvoloso 14 11 82 1021 10 N 1.8
Ieri h: 08:50 poco_nuvoloso Poco Nuvoloso 12 11 93 1021 10 N 0
Ieri h: 08:20 poco_nuvoloso Poco Nuvoloso 10 10 100 1021 10 N 1.8
Ieri h: 07:50 nuvoloso Nuvoloso 10 10 100 1021 10 NE 7.4
Ieri h: 07:20 molto_nuvoloso Molto Nuvoloso 10 10 100 1020 10 N 5.5
Ieri h: 06:50 poco_nuvoloso Poco Nuvoloso 10 9 93 1020 10 N 1.8
Ieri h: 06:20 sereno Sereno 9 9 100 1020 10 N 3.7
Ieri h: 05:50 foschia Foschia 9 9 100 1020 4 N 1.8
Ieri h: 05:20 sereno Sereno 10 10 100 1020 10 N 0
Ieri h: 04:50 sereno Sereno 11 10 93 1020 10 N 0
Ieri h: 04:20 sereno Sereno 11 10 93 1019 10 N 0
Ieri h: 03:50 sereno Sereno 11 11 100 1019 10 N 0